createdAt,value
2022-09-29T00:00:12.371Z,98450.71
2022-09-29T00:05:34.492Z,98448.23
2022-09-29T00:10:39.548Z,98443.02
2022-09-29T00:15:40.945Z,98442.02
2022-09-29T00:20:42.076Z,98442.20
2022-09-29T00:25:43.087Z,98438.89
2022-09-29T00:30:44.177Z,98436.02
2022-09-29T00:35:56.155Z,98438.52
2022-09-29T00:40:57.971Z,98447.13
2022-09-29T00:45:59.398Z,98445.79
2022-09-29T00:51:00.628Z,98442.23
2022-09-29T00:56:04.050Z,98441.98
2022-09-29T01:01:06.493Z,98442.17
2022-09-29T01:06:19.039Z,98442.28
2022-09-29T01:11:21.220Z,98447.65
2022-09-29T01:16:22.575Z,98445.58
2022-09-29T01:21:33.914Z,98441.82
2022-09-29T01:26:38.003Z,98439.54
2022-09-29T01:31:51.478Z,98442.98
2022-09-29T01:37:30.010Z,98442.08
2022-09-29T01:42:51.343Z,98450.94
2022-09-29T01:47:58.392Z,98453.20
2022-09-29T01:53:06.571Z,98457.02
2022-09-29T01:58:18.072Z,98457.21
2022-09-29T02:03:27.479Z,98459.80
2022-09-29T02:08:36.043Z,98458.52
2022-09-29T02:13:49.494Z,98462.30
2022-09-29T02:18:58.482Z,98467.73
2022-09-29T02:24:00.446Z,98471.09
2022-09-29T02:29:03.631Z,98476.12
2022-09-29T02:34:08.261Z,98476.75
2022-09-29T02:39:37.259Z,98480.48
2022-09-29T02:45:03.347Z,98486.47
2022-09-29T02:50:20.595Z,98494.23
2022-09-29T02:56:00.863Z,98502.36
2022-09-29T03:01:02.765Z,98507.13
2022-09-29T03:06:04.254Z,98507.23
2022-09-29T03:11:05.453Z,98515.27
2022-09-29T03:16:07.264Z,98517.41
2022-09-29T03:21:08.640Z,98522.73
2022-09-29T03:26:10.627Z,98526.33
2022-09-29T03:31:11.811Z,98527.33
2022-09-29T03:36:12.959Z,98531.87
2022-09-29T03:41:14.960Z,98534.14
2022-09-29T03:46:16.117Z,98532.66
2022-09-29T03:51:17.161Z,98538.87
2022-09-29T03:56:18.367Z,98545.92
2022-09-29T04:01:19.585Z,98538.70
2022-09-29T04:06:20.825Z,98544.54
2022-09-29T04:11:21.968Z,98547.60
2022-09-29T04:16:23.021Z,98550.46
2022-09-29T04:21:24.558Z,98554.80
2022-09-29T04:26:26.212Z,98557.01
2022-09-29T04:31:28.177Z,98565.92
2022-09-29T04:36:29.584Z,98569.82
2022-09-29T04:41:34.092Z,98569.75
2022-09-29T04:46:35.652Z,98572.90
2022-09-29T04:51:36.644Z,98574.80
2022-09-29T04:56:37.862Z,98588.38
2022-09-29T05:01:39.089Z,98592.23
2022-09-29T05:06:40.471Z,98584.40
2022-09-29T05:11:41.635Z,98588.76
2022-09-29T05:16:43.116Z,98594.91
2022-09-29T05:21:46.159Z,98596.39
2022-09-29T05:26:47.281Z,98602.29
2022-09-29T05:31:48.942Z,98606.65
2022-09-29T05:36:50.439Z,98604.73
2022-09-29T05:41:51.692Z,98611.75
2022-09-29T05:46:52.886Z,98618.44
2022-09-29T05:51:55.133Z,98621.54
2022-09-29T05:56:56.344Z,98625.77
2022-09-29T06:01:57.437Z,98635.35
2022-09-29T06:06:58.664Z,98640.74
2022-09-29T06:12:00.010Z,98643.48
2022-09-29T06:17:01.253Z,98648.02
2022-09-29T06:22:02.321Z,98652.17
2022-09-29T06:27:03.481Z,98659.27
2022-09-29T06:32:04.596Z,98664.81
2022-09-29T06:37:24.020Z,98667.90
2022-09-29T06:42:25.457Z,98672.84
2022-09-29T06:47:26.568Z,98671.72
2022-09-29T06:52:30.033Z,98674.09
2022-09-29T06:57:31.352Z,98680.52
2022-09-29T07:02:32.615Z,98685.53
2022-09-29T07:07:33.796Z,98690.42
2022-09-29T07:12:34.827Z,98691.80
2022-09-29T07:17:35.966Z,98695.05
2022-09-29T07:22:37.289Z,98703.23
2022-09-29T07:27:38.457Z,98708.17
2022-09-29T07:32:40.018Z,98714.36
2022-09-29T07:37:41.552Z,98718.44
2022-09-29T07:42:42.947Z,98727.39
2022-09-29T07:47:44.365Z,98728.27
2022-09-29T07:52:49.960Z,98731.05
2022-09-29T07:57:51.111Z,98736.91
2022-09-29T08:02:52.435Z,98744.16
2022-09-29T08:07:53.805Z,98745.48
2022-09-29T08:12:55.514Z,98741.96
2022-09-29T08:17:56.684Z,98743.50
2022-09-29T08:22:58.217Z,98755.45
2022-09-29T08:27:59.538Z,98757.63
2022-09-29T08:33:01.098Z,98765.77
2022-09-29T08:38:02.209Z,98770.77
2022-09-29T08:43:06.235Z,98776.77
2022-09-29T08:48:22.501Z,98781.33
2022-09-29T08:53:29.222Z,98792.68
2022-09-29T08:58:32.929Z,98793.55
2022-09-29T09:03:55.652Z,98796.19
2022-09-29T09:09:05.711Z,98799.83
2022-09-29T09:14:19.098Z,98808.30
2022-09-29T09:19:58.338Z,98811.31
2022-09-29T09:25:38.347Z,98818.63
2022-09-29T09:30:54.248Z,98824.23
2022-09-29T09:36:02.543Z,98826.95
2022-09-29T09:41:03.939Z,98833.52
2022-09-29T09:46:20.162Z,98841.27
2022-09-29T09:57:04.596Z,98849.98
2022-09-29T10:02:21.301Z,98854.89
2022-09-29T10:07:24.646Z,98860.20
2022-09-29T10:12:25.798Z,98862.19
2022-09-29T10:17:32.469Z,98868.21
2022-09-29T10:22:34.399Z,98876.45
2022-09-29T10:27:40.902Z,98883.60
2022-09-29T10:32:44.497Z,98888.30
2022-09-29T10:38:00.383Z,98889.23
2022-09-29T10:43:24.552Z,98894.92
2022-09-29T10:48:26.466Z,98906.98
2022-09-29T10:53:27.815Z,98916.23
2022-09-29T11:04:14.663Z,98927.67
2022-09-29T11:09:16.092Z,98929.71
2022-09-29T11:14:26.520Z,98935.02
2022-09-29T11:19:31.132Z,98938.08
2022-09-29T11:24:50.023Z,98943.28
2022-09-29T11:30:11.894Z,98944.39
2022-09-29T11:35:18.583Z,98950.89
2022-09-29T11:40:40.872Z,98961.29
2022-09-29T11:45:51.921Z,98960.71
2022-09-29T11:51:14.619Z,98967.86
2022-09-29T11:56:24.431Z,98975.70
2022-09-29T12:01:51.791Z,98978.66
2022-09-29T12:07:30.238Z,98982.30
2022-09-29T12:12:54.570Z,98986.19
2022-09-29T12:18:12.036Z,98990.23
2022-09-29T12:23:17.758Z,98995.24
2022-09-29T12:28:26.538Z,99001.48
2022-09-29T12:33:49.378Z,99009.80
2022-09-29T12:38:51.825Z,99011.48
2022-09-29T12:44:38.434Z,99018.60
2022-09-29T12:50:01.500Z,99028.41
2022-09-29T12:55:08.677Z,99036.29
2022-09-29T13:00:15.097Z,99040.52
2022-09-29T13:05:25.058Z,99044.63
2022-09-29T13:10:57.121Z,99046.23
2022-09-29T13:16:17.121Z,99045.48
2022-09-29T13:21:44.196Z,99041.78
2022-09-29T13:26:54.668Z,99041.60
2022-09-29T13:31:57.350Z,99050.98
2022-09-29T13:37:19.277Z,99053.05
2022-09-29T13:42:36.115Z,99057.92
2022-09-29T13:47:51.766Z,99059.55
2022-09-29T13:52:52.953Z,99062.39
2022-09-29T13:57:54.124Z,99071.02
2022-09-29T14:03:04.018Z,99073.35
2022-09-29T14:08:14.705Z,99081.44
2022-09-29T14:13:32.934Z,99080.13
2022-09-29T14:18:48.038Z,99080.19
2022-09-29T14:23:51.598Z,99087.37
2022-09-29T14:28:54.259Z,99096.02
2022-09-29T14:33:56.341Z,99100.28
2022-09-29T14:39:26.793Z,99101.27
2022-09-29T14:44:52.790Z,99106.92
2022-09-29T14:50:18.297Z,99112.36
2022-09-29T14:55:59.327Z,99113.52
2022-09-29T15:01:08.696Z,99121.88
2022-09-29T15:06:13.587Z,99131.55
2022-09-29T15:11:42.576Z,99137.65
2022-09-29T15:17:14.003Z,99138.89
2022-09-29T15:22:33.321Z,99149.83
2022-09-29T15:27:36.712Z,99155.38
2022-09-29T15:32:38.008Z,99158.85
2022-09-29T15:38:15.666Z,99164.41
2022-09-29T15:43:27.268Z,99177.76
2022-09-29T15:48:30.505Z,99192.48
2022-09-29T15:53:32.247Z,99199.13
2022-09-29T15:58:44.466Z,99204.45
2022-09-29T16:03:56.626Z,99203.45
2022-09-29T16:09:03.192Z,99209.01
2022-09-29T16:14:08.467Z,99208.74
2022-09-29T16:19:17.777Z,99211.49
2022-09-29T16:24:19.963Z,99213.85
2022-09-29T16:29:21.328Z,99213.50
2022-09-29T16:34:22.839Z,99216.66
2022-09-29T16:39:27.259Z,99223.34
2022-09-29T16:44:31.557Z,99222.98
2022-09-29T16:49:52.291Z,99229.52
2022-09-29T16:55:12.923Z,99236.73
2022-09-29T17:00:17.288Z,99235.18
2022-09-29T17:05:18.462Z,99238.58
2022-09-29T17:10:21.004Z,99237.50
2022-09-29T17:15:22.778Z,99242.44
2022-09-29T17:20:28.550Z,99247.75
2022-09-29T17:25:31.939Z,99246.34
2022-09-29T17:30:33.055Z,99251.02
2022-09-29T17:35:35.937Z,99256.45
2022-09-29T17:40:53.021Z,99259.29
2022-09-29T17:45:55.207Z,99262.48
2022-09-29T17:50:58.482Z,99262.77
2022-09-29T17:56:02.512Z,99270.89
2022-09-29T18:01:04.541Z,99273.70
2022-09-29T18:06:05.834Z,99275.86
2022-09-29T18:11:08.719Z,99276.88
2022-09-29T18:16:13.943Z,99281.97
2022-09-29T18:21:19.516Z,99284.75
2022-09-29T18:26:20.926Z,99288.61
2022-09-29T18:31:26.849Z,99292.23
2022-09-29T18:36:28.304Z,99298.30
2022-09-29T18:41:29.529Z,99302.35
2022-09-29T18:46:31.130Z,99308.92
2022-09-29T18:51:33.431Z,99313.01
2022-09-29T18:56:34.582Z,99317.59
2022-09-29T19:01:35.808Z,99323.94
2022-09-29T19:06:37.284Z,99334.15
2022-09-29T19:11:38.716Z,99339.61
2022-09-29T19:16:39.899Z,99347.35
2022-09-29T19:21:42.009Z,99346.74
2022-09-29T19:26:43.415Z,99356.16
2022-09-29T19:31:44.939Z,99360.29
2022-09-29T19:36:46.161Z,99363.65
2022-09-29T19:41:47.245Z,99364.33
2022-09-29T19:46:49.101Z,99363.67
2022-09-29T19:51:54.429Z,99365.42
2022-09-29T19:56:58.581Z,99368.31
2022-09-29T20:02:02.047Z,99373.25
2022-09-29T20:07:05.089Z,99383.20
2022-09-29T20:12:06.273Z,99385.59
2022-09-29T20:17:07.494Z,99379.79
2022-09-29T20:22:08.817Z,99384.92
2022-09-29T20:27:10.439Z,99386.48
2022-09-29T20:32:12.220Z,99392.06
2022-09-29T20:37:14.036Z,99403.37
2022-09-29T20:42:18.746Z,99401.27
2022-09-29T20:47:20.652Z,99410.75
2022-09-29T20:52:24.642Z,99412.05
2022-09-29T20:57:25.938Z,99414.70
2022-09-29T21:02:27.290Z,99425.51
2022-09-29T21:07:47.415Z,99433.60
2022-09-29T21:12:48.685Z,99440.36
2022-09-29T21:17:49.834Z,99445.70
2022-09-29T21:22:51.577Z,99448.08
2022-09-29T21:27:52.891Z,99451.55
2022-09-29T21:32:54.586Z,99448.70
2022-09-29T21:37:55.973Z,99450.67
2022-09-29T21:42:57.148Z,99457.91
2022-09-29T21:48:16.901Z,99460.92
2022-09-29T21:53:18.135Z,99460.41
2022-09-29T21:58:19.727Z,99460.89
2022-09-29T22:03:21.360Z,99457.40
2022-09-29T22:08:22.894Z,99462.19
2022-09-29T22:13:25.694Z,99462.70
2022-09-29T22:18:40.607Z,99457.84
2022-09-29T22:23:43.450Z,99454.27
2022-09-29T22:28:44.675Z,99459.77
2022-09-29T22:33:46.014Z,99466.20
2022-09-29T22:38:47.927Z,99475.48
2022-09-29T22:43:54.263Z,99487.84
2022-09-29T22:48:56.243Z,99500.48
2022-09-29T22:53:57.504Z,99509.39
2022-09-29T22:59:03.417Z,99516.81
2022-09-29T23:04:05.093Z,99522.14
2022-09-29T23:09:11.017Z,99527.30
2022-09-29T23:14:12.376Z,99527.48
2022-09-29T23:19:13.977Z,99529.09
2022-09-29T23:24:16.038Z,99536.33
2022-09-29T23:29:17.394Z,99535.66
2022-09-29T23:34:22.885Z,99541.23
2022-09-29T23:39:24.537Z,99545.30
2022-09-29T23:44:28.731Z,99548.98
2022-09-29T23:49:30.056Z,99546.17
2022-09-29T23:54:31.395Z,99546.52
2022-09-29T23:59:32.669Z,99554.90
